Time;durP1;ratioP1;P1;durP2;ratioP2;P2;SDS_P1;SDS_P2;PMS_P1;PMS_P2;Temp;Humidity;BMP_temperature;BMP_pressure;BME280_temperature;BME280_humidity;BME280_pressure;Samples;Min_cycle;Max_cycle;Signal;HPM_P1;HPM_P2
2022/11/07 00:00:46;;;;;;;4.37;3.97;;;;;;;;;;5054871;28;20477;-74
2022/11/07 00:03:45;;;;;;;4.40;3.90;;;;;;;;;;5051105;28;20487;-74
2022/11/07 00:06:36;;;;;;;4.70;3.77;;;;;;;;;;5061462;28;20445;-74
2022/11/07 00:09:30;;;;;;;4.40;4.10;;;;;;;;;;5071472;28;20500;-74
2022/11/07 00:12:19;;;;;;;4.30;4.00;;;;;;;;;;5067568;28;20472;-73
2022/11/07 00:15:09;;;;;;;4.37;3.90;;;;;;;;;;5076607;28;20483;-73
2022/11/07 00:17:59;;;;;;;4.20;3.80;;;;;;;;;;5078928;28;20461;-75
2022/11/07 00:20:50;;;;;;;4.13;3.73;;;;;;;;;;5075246;28;20484;-73
2022/11/07 00:23:42;;;;;;;4.60;4.13;;;;;;;;;;5080877;28;20461;-74
2022/11/07 00:26:37;;;;;;;4.20;3.70;;;;;;;;;;5078688;28;20461;-74
2022/11/07 00:29:27;;;;;;;4.20;3.80;;;;;;;;;;5073156;28;21003;-74
2022/11/07 00:32:18;;;;;;;4.53;3.93;;;;;;;;;;5076580;28;20480;-73
2022/11/07 00:35:06;;;;;;;4.70;4.30;;;;;;;;;;5078185;28;20503;-74
2022/11/07 00:38:02;;;;;;;4.90;4.50;;;;;;;;;;5077559;28;20829;-75
2022/11/07 00:40:56;;;;;;;4.70;4.00;;;;;;;;;;5073724;28;20488;-73
2022/11/07 00:43:48;;;;;;;4.87;4.33;;;;;;;;;;5074134;28;20850;-73
2022/11/07 00:46:36;;;;;;;4.50;4.10;;;;;;;;;;5077829;28;20888;-73
2022/11/07 00:49:25;;;;;;;4.77;4.37;;;;;;;;;;5077399;28;20964;-73
2022/11/07 00:52:16;;;;;;;5.00;4.50;;;;;;;;;;5068866;28;20500;-74
2022/11/07 00:55:11;;;;;;;4.77;3.77;;;;;;;;;;5076767;28;20536;-74
2022/11/07 00:58:01;;;;;;;5.07;4.57;;;;;;;;;;5069622;28;20507;-74
2022/11/07 01:00:53;;;;;;;4.37;3.97;;;;;;;;;;5061152;28;20494;-74
2022/11/07 01:06:56;;;;;;;4.70;4.10;;;;;;;;;;5062077;28;20454;-75
2022/11/07 01:09:44;;;;;;;5.10;4.30;;;;;;;;;;5062011;28;20481;-73
2022/11/07 01:12:34;;;;;;;6.90;4.20;;;;;;;;;;5079052;28;20470;-73
2022/11/07 01:15:25;;;;;;;6.00;4.50;;;;;;;;;;5088274;28;20482;-74
2022/11/07 01:18:19;;;;;;;5.20;4.03;;;;;;;;;;5083890;28;20457;-74
2022/11/07 01:21:10;;;;;;;4.30;3.90;;;;;;;;;;5087580;28;20473;-74
2022/11/07 01:24:04;;;;;;;4.50;3.57;;;;;;;;;;5091573;28;20857;-73
2022/11/07 01:26:58;;;;;;;4.40;3.83;;;;;;;;;;5079801;28;20462;-73
2022/11/07 01:29:50;;;;;;;4.20;3.80;;;;;;;;;;5078840;28;20485;-73
2022/11/07 01:32:43;;;;;;;4.33;3.93;;;;;;;;;;5078566;28;20474;-74
2022/11/07 01:35:34;;;;;;;4.50;4.10;;;;;;;;;;5075340;28;20473;-75
2022/11/07 01:38:25;;;;;;;4.27;3.87;;;;;;;;;;5087477;28;20455;-73
2022/11/07 01:41:22;;;;;;;4.30;3.90;;;;;;;;;;5079696;28;20477;-74
2022/11/07 01:44:31;;;;;;;4.03;3.67;;;;;;;;;;5077158;28;20822;-74
2022/11/07 01:47:21;;;;;;;4.93;4.43;;;;;;;;;;5103400;28;20455;-73
2022/11/07 01:50:15;;;;;;;4.73;4.33;;;;;;;;;;5100721;28;20458;-73
2022/11/07 01:53:05;;;;;;;5.73;4.70;;;;;;;;;;5097632;28;20461;-74
2022/11/07 01:55:56;;;;;;;5.03;4.63;;;;;;;;;;5088672;28;20583;-73
2022/11/07 01:58:46;;;;;;;4.83;4.40;;;;;;;;;;5082329;28;20449;-74
2022/11/07 02:01:38;;;;;;;4.80;4.30;;;;;;;;;;5083095;28;20469;-73
2022/11/07 02:04:35;;;;;;;4.50;4.10;;;;;;;;;;5081403;28;20476;-74
2022/11/07 02:07:24;;;;;;;4.83;4.43;;;;;;;;;;5076090;28;20856;-74
2022/11/07 02:10:21;;;;;;;4.57;4.17;;;;;;;;;;5076700;28;20546;-73
2022/11/07 02:13:13;;;;;;;4.43;4.03;;;;;;;;;;5088174;28;20614;-74
2022/11/07 02:16:02;;;;;;;4.57;4.17;;;;;;;;;;5093842;28;20484;-73
2022/11/07 02:18:54;;;;;;;5.20;4.70;;;;;;;;;;5093935;28;20446;-74
2022/11/07 02:21:47;;;;;;;5.30;4.80;;;;;;;;;;5095654;28;21023;-73
2022/11/07 02:24:40;;;;;;;4.90;4.50;;;;;;;;;;5097243;28;20444;-73
2022/11/07 02:27:32;;;;;;;5.80;4.40;;;;;;;;;;5097287;28;20454;-75
2022/11/07 02:30:21;;;;;;;5.10;4.70;;;;;;;;;;5095300;28;20478;-73
2022/11/07 02:33:20;;;;;;;5.10;4.67;;;;;;;;;;5092235;28;20446;-73
2022/11/07 02:36:24;;;;;;;4.80;4.40;;;;;;;;;;5090606;28;20548;-73
2022/11/07 02:39:17;;;;;;;4.03;3.73;;;;;;;;;;5085018;28;20484;-73
2022/11/07 02:42:10;;;;;;;4.90;4.40;;;;;;;;;;5088402;28;20473;-74
2022/11/07 02:45:06;;;;;;;4.73;4.23;;;;;;;;;;5077287;28;20450;-74
2022/11/07 02:47:54;;;;;;;6.50;4.70;;;;;;;;;;5080778;28;20463;-74
2022/11/07 02:50:47;;;;;;;5.07;4.67;;;;;;;;;;5083750;28;20754;-75
2022/11/07 02:53:43;;;;;;;5.20;4.47;;;;;;;;;;5084305;28;20446;-74
2022/11/07 02:56:31;;;;;;;4.80;4.40;;;;;;;;;;5088846;28;20478;-74
2022/11/07 02:59:23;;;;;;;6.37;4.03;;;;;;;;;;5079086;28;20453;-73
2022/11/07 03:02:16;;;;;;;5.30;4.70;;;;;;;;;;5076452;28;20474;-74
2022/11/07 03:05:05;;;;;;;4.37;3.90;;;;;;;;;;5073921;28;20860;-73
2022/11/07 03:07:54;;;;;;;4.47;4.07;;;;;;;;;;5074900;28;20458;-73
2022/11/07 03:10:46;;;;;;;4.57;3.93;;;;;;;;;;5073951;28;20555;-73
2022/11/07 03:13:35;;;;;;;3.80;3.50;;;;;;;;;;5076803;28;20441;-74
2022/11/07 03:16:25;;;;;;;3.93;3.63;;;;;;;;;;5064634;28;20473;-73
2022/11/07 03:19:21;;;;;;;4.60;4.20;;;;;;;;;;5065294;28;20465;-74
2022/11/07 03:22:13;;;;;;;4.63;4.23;;;;;;;;;;5062915;28;20477;-75
2022/11/07 03:25:01;;;;;;;4.53;4.10;;;;;;;;;;5071274;28;20457;-74
2022/11/07 03:27:52;;;;;;;4.30;4.00;;;;;;;;;;5059786;28;20461;-74
2022/11/07 03:30:41;;;;;;;5.70;4.70;;;;;;;;;;5071519;28;20465;-73
2022/11/07 03:33:33;;;;;;;5.23;4.10;;;;;;;;;;5081639;28;20457;-74
2022/11/07 03:36:29;;;;;;;4.97;3.90;;;;;;;;;;5091341;28;20473;-74
2022/11/07 03:39:19;;;;;;;4.43;4.00;;;;;;;;;;5064811;28;20454;-74
2022/11/07 03:42:13;;;;;;;6.00;4.27;;;;;;;;;;5055142;28;20485;-74
2022/11/07 03:45:03;;;;;;;5.53;4.10;;;;;;;;;;5056872;28;20527;-74
2022/11/07 03:47:51;;;;;;;4.73;4.33;;;;;;;;;;5055122;28;20457;-74
2022/11/07 03:50:41;;;;;;;4.67;4.30;;;;;;;;;;5057525;28;20573;-74
2022/11/07 03:53:38;;;;;;;4.80;4.40;;;;;;;;;;5060485;28;20460;-74
2022/11/07 03:56:36;;;;;;;4.33;4.03;;;;;;;;;;5062664;28;20516;-74
2022/11/07 03:59:32;;;;;;;4.10;3.70;;;;;;;;;;5069244;28;20449;-74
2022/11/07 04:02:22;;;;;;;4.13;3.67;;;;;;;;;;5073195;28;20597;-74
2022/11/07 04:05:16;;;;;;;5.43;4.23;;;;;;;;;;5076724;28;20450;-74
2022/11/07 04:08:07;;;;;;;4.70;4.17;;;;;;;;;;5074219;28;20478;-74
2022/11/07 04:10:58;;;;;;;5.70;4.80;;;;;;;;;;5086896;28;20474;-74
2022/11/07 04:17:19;;;;;;;5.30;4.10;;;;;;;;;;5072737;28;20566;-74
2022/11/07 04:20:11;;;;;;;5.30;4.83;;;;;;;;;;5076485;28;20858;-75
2022/11/07 04:23:03;;;;;;;6.17;4.40;;;;;;;;;;5075575;28;20481;-74
2022/11/07 04:29:06;;;;;;;4.73;3.87;;;;;;;;;;5077943;28;20479;-74
2022/11/07 04:32:08;;;;;;;6.37;4.47;;;;;;;;;;5076681;28;20859;-74
2022/11/07 04:34:59;;;;;;;4.77;4.30;;;;;;;;;;5078902;28;20664;-74
2022/11/07 04:37:51;;;;;;;6.40;5.17;;;;;;;;;;5077598;28;20439;-74
2022/11/07 04:40:40;;;;;;;6.70;4.40;;;;;;;;;;5077401;28;20487;-74
2022/11/07 04:43:42;;;;;;;4.17;3.80;;;;;;;;;;5071953;28;20475;-75
2022/11/07 04:46:33;;;;;;;9.47;5.03;;;;;;;;;;5077756;28;20457;-74
2022/11/07 04:49:26;;;;;;;8.00;4.77;;;;;;;;;;5079243;28;20468;-74
2022/11/07 04:52:14;;;;;;;4.70;4.07;;;;;;;;;;5075835;28;20872;-74
2022/11/07 04:55:04;;;;;;;4.87;4.40;;;;;;;;;;5076408;28;20520;-74
2022/11/07 04:57:55;;;;;;;5.77;4.63;;;;;;;;;;5071836;28;21123;-74
2022/11/07 05:00:49;;;;;;;4.97;4.47;;;;;;;;;;5075236;28;20488;-74
2022/11/07 05:03:40;;;;;;;5.10;4.10;;;;;;;;;;5077956;28;20476;-74
2022/11/07 05:06:37;;;;;;;4.47;4.17;;;;;;;;;;5076731;28;20449;-74
2022/11/07 05:09:38;;;;;;;5.77;4.63;;;;;;;;;;5077847;28;20849;-74
2022/11/07 05:12:27;;;;;;;6.60;4.60;;;;;;;;;;5075061;28;20477;-74
2022/11/07 05:15:21;;;;;;;6.73;4.23;;;;;;;;;;5057166;28;20462;-75
2022/11/07 05:18:13;;;;;;;6.47;5.10;;;;;;;;;;5059686;28;20465;-74
2022/11/07 05:21:03;;;;;;;6.00;4.40;;;;;;;;;;5065620;28;21030;-74
2022/11/07 05:23:51;;;;;;;6.50;4.60;;;;;;;;;;5071510;28;20453;-74
2022/11/07 05:29:45;;;;;;;5.13;4.63;;;;;;;;;;5061826;28;20472;-75
2022/11/07 05:32:40;;;;;;;5.20;4.70;;;;;;;;;;5071822;28;20472;-74
2022/11/07 05:35:33;;;;;;;5.10;4.30;;;;;;;;;;5074772;28;20446;-74
2022/11/07 05:38:22;;;;;;;6.00;4.60;;;;;;;;;;5075637;28;20979;-74
2022/11/07 05:41:17;;;;;;;8.67;4.90;;;;;;;;;;5070777;28;21836;-74
2022/11/07 05:44:12;;;;;;;4.80;4.30;;;;;;;;;;5073380;28;20460;-75
2022/11/07 05:47:17;;;;;;;4.43;4.03;;;;;;;;;;5074211;28;20460;-74
2022/11/07 05:50:06;;;;;;;4.70;4.30;;;;;;;;;;5074727;28;20483;-74
2022/11/07 05:53:04;;;;;;;5.23;4.57;;;;;;;;;;5076794;28;20475;-74
2022/11/07 05:55:53;;;;;;;5.97;4.60;;;;;;;;;;5079867;28;20441;-74
2022/11/07 05:58:42;;;;;;;7.40;4.50;;;;;;;;;;5075367;28;20536;-74
2022/11/07 06:01:34;;;;;;;5.00;4.53;;;;;;;;;;5068399;28;20500;-74
2022/11/07 06:04:25;;;;;;;5.60;4.20;;;;;;;;;;5076249;28;20945;-75
2022/11/07 06:07:19;;;;;;;4.57;4.17;;;;;;;;;;5063728;28;20453;-75
2022/11/07 06:10:14;;;;;;;5.77;4.33;;;;;;;;;;5077387;28;20469;-75
2022/11/07 06:13:05;;;;;;;4.57;4.10;;;;;;;;;;5061993;28;20580;-75
2022/11/07 06:15:53;;;;;;;6.17;4.23;;;;;;;;;;5075135;28;20498;-75
2022/11/07 06:18:42;;;;;;;6.87;5.43;;;;;;;;;;5064386;28;20506;-74
2022/11/07 06:21:36;;;;;;;5.77;5.23;;;;;;;;;;5067726;28;20478;-74
2022/11/07 06:24:24;;;;;;;5.03;4.53;;;;;;;;;;5070855;28;20460;-74
2022/11/07 06:27:24;;;;;;;9.20;5.27;;;;;;;;;;5057980;28;20461;-76
2022/11/07 06:30:13;;;;;;;6.53;5.10;;;;;;;;;;5067665;28;21130;-76
2022/11/07 06:33:01;;;;;;;5.53;5.03;;;;;;;;;;5068913;28;20454;-75
2022/11/07 06:35:52;;;;;;;7.87;5.20;;;;;;;;;;5045171;28;20453;-76
2022/11/07 06:38:41;;;;;;;6.90;4.73;;;;;;;;;;5046462;28;20506;-75
2022/11/07 06:41:29;;;;;;;4.90;4.50;;;;;;;;;;5051840;28;21795;-76
2022/11/07 06:44:19;;;;;;;6.27;4.93;;;;;;;;;;5070402;28;20454;-75
2022/11/07 06:47:08;;;;;;;6.53;4.70;;;;;;;;;;5068715;28;20453;-75
2022/11/07 06:49:58;;;;;;;5.57;4.70;;;;;;;;;;5065714;28;20997;-76
2022/11/07 06:52:49;;;;;;;5.70;5.17;;;;;;;;;;5058638;28;20485;-75
2022/11/07 06:55:38;;;;;;;5.10;4.67;;;;;;;;;;5070226;28;20442;-75
2022/11/07 06:58:26;;;;;;;5.30;4.80;;;;;;;;;;5055259;28;20481;-76
2022/11/07 07:01:18;;;;;;;9.03;5.43;;;;;;;;;;5052994;28;20489;-76
2022/11/07 07:04:07;;;;;;;6.67;5.30;;;;;;;;;;5053341;28;20569;-76
2022/11/07 07:06:55;;;;;;;5.70;4.73;;;;;;;;;;5054233;28;20498;-76
2022/11/07 07:09:44;;;;;;;8.60;5.37;;;;;;;;;;5058910;28;20568;-76
2022/11/07 07:12:32;;;;;;;6.00;4.90;;;;;;;;;;5049486;28;20488;-76
2022/11/07 07:15:21;;;;;;;7.40;4.73;;;;;;;;;;5055572;28;20495;-76
2022/11/07 07:18:11;;;;;;;5.50;4.57;;;;;;;;;;5054988;28;20477;-77
2022/11/07 07:21:05;;;;;;;5.53;4.93;;;;;;;;;;5059266;28;21182;-76
2022/11/07 07:23:57;;;;;;;5.33;4.67;;;;;;;;;;5059341;28;20460;-76
2022/11/07 07:26:46;;;;;;;5.70;5.00;;;;;;;;;;5060201;28;20501;-75
2022/11/07 07:29:34;;;;;;;6.00;4.50;;;;;;;;;;5051743;28;20995;-76
2022/11/07 07:32:24;;;;;;;8.33;5.10;;;;;;;;;;5045661;28;20472;-76
2022/11/07 07:35:13;;;;;;;7.63;4.97;;;;;;;;;;5048060;28;20501;-75
2022/11/07 07:38:02;;;;;;;9.80;5.20;;;;;;;;;;5046225;28;20482;-76
2022/11/07 07:40:50;;;;;;;7.30;4.80;;;;;;;;;;5057090;28;20577;-76
2022/11/07 07:43:39;;;;;;;7.40;4.87;;;;;;;;;;5045804;28;20988;-76
2022/11/07 07:46:28;;;;;;;6.90;4.50;;;;;;;;;;5061819;28;20964;-75
2022/11/07 07:49:16;;;;;;;8.37;5.30;;;;;;;;;;5061872;28;20465;-75
2022/11/07 07:52:09;;;;;;;5.30;4.80;;;;;;;;;;5056083;28;20856;-76
2022/11/07 07:54:57;;;;;;;6.30;4.70;;;;;;;;;;5057993;28;20454;-75
2022/11/07 07:57:46;;;;;;;5.07;4.40;;;;;;;;;;5064111;28;22564;-75
2022/11/07 08:00:35;;;;;;;8.40;5.70;;;;;;;;;;5054875;28;20482;-75
2022/11/07 08:03:23;;;;;;;9.13;5.17;;;;;;;;;;5050767;28;20457;-75
2022/11/07 08:06:12;;;;;;;6.27;4.53;;;;;;;;;;5056538;28;20987;-75
2022/11/07 08:09:02;;;;;;;6.20;4.50;;;;;;;;;;5049038;28;20465;-74
2022/11/07 08:11:50;;;;;;;5.50;4.40;;;;;;;;;;5062215;28;20510;-75
2022/11/07 08:14:39;;;;;;;5.60;4.30;;;;;;;;;;5074961;28;20454;-74
2022/11/07 08:17:27;;;;;;;4.53;4.13;;;;;;;;;;5076911;28;20539;-75
2022/11/07 08:20:17;;;;;;;4.87;4.10;;;;;;;;;;5075985;28;20556;-75
2022/11/07 08:23:08;;;;;;;6.30;5.00;;;;;;;;;;5071770;28;21208;-74
2022/11/07 08:26:05;;;;;;;6.20;4.10;;;;;;;;;;5075166;28;20557;-74
2022/11/07 08:28:54;;;;;;;5.03;4.50;;;;;;;;;;5075693;28;20454;-74
2022/11/07 08:31:42;;;;;;;6.20;5.03;;;;;;;;;;5074144;28;20468;-74
2022/11/07 08:34:31;;;;;;;6.53;4.37;;;;;;;;;;5077124;28;20887;-74
2022/11/07 08:37:20;;;;;;;5.03;4.53;;;;;;;;;;5069816;28;20459;-75
2022/11/07 08:40:09;;;;;;;7.00;5.60;;;;;;;;;;5070763;28;20506;-76
2022/11/07 08:43:00;;;;;;;5.90;4.20;;;;;;;;;;5063281;28;20469;-74
2022/11/07 08:45:49;;;;;;;6.10;4.57;;;;;;;;;;5067371;28;21105;-74
2022/11/07 08:48:39;;;;;;;4.97;4.17;;;;;;;;;;5052160;28;20518;-76
2022/11/07 08:51:28;;;;;;;5.00;4.47;;;;;;;;;;5065378;28;20575;-75
2022/11/07 08:54:17;;;;;;;7.63;4.33;;;;;;;;;;5055487;28;21149;-75
2022/11/07 08:57:05;;;;;;;6.63;4.70;;;;;;;;;;5060078;28;20460;-74
2022/11/07 08:59:55;;;;;;;6.43;4.23;;;;;;;;;;5055922;28;21047;-74
2022/11/07 09:02:45;;;;;;;7.23;4.30;;;;;;;;;;5053841;28;20674;-75
2022/11/07 09:05:53;;;;;;;6.80;4.30;;;;;;;;;;5051424;28;20480;-75
2022/11/07 09:08:45;;;;;;;5.03;4.47;;;;;;;;;;5060959;28;20967;-75
2022/11/07 09:11:36;;;;;;;6.00;4.90;;;;;;;;;;5065581;28;20637;-74
2022/11/07 09:14:25;;;;;;;7.13;4.93;;;;;;;;;;5054811;28;20474;-75
2022/11/07 09:17:16;;;;;;;5.80;4.40;;;;;;;;;;5052837;28;20456;-74
2022/11/07 09:20:05;;;;;;;5.63;4.50;;;;;;;;;;5052000;28;20580;-75
2022/11/07 09:22:56;;;;;;;7.80;4.80;;;;;;;;;;5053400;28;20665;-76
2022/11/07 09:25:45;;;;;;;5.13;4.27;;;;;;;;;;5073883;28;20544;-74
2022/11/07 09:28:35;;;;;;;4.77;4.33;;;;;;;;;;5062074;28;20451;-74
2022/11/07 09:31:23;;;;;;;5.40;4.37;;;;;;;;;;5055138;28;20484;-76
2022/11/07 09:34:13;;;;;;;6.00;4.00;;;;;;;;;;5048813;28;21705;-75
2022/11/07 09:37:02;;;;;;;5.60;4.97;;;;;;;;;;5057520;28;20474;-75
2022/11/07 09:39:51;;;;;;;4.60;3.87;;;;;;;;;;5054798;28;20512;-75
2022/11/07 09:42:44;;;;;;;4.63;4.23;;;;;;;;;;5049512;28;20638;-76
2022/11/07 09:45:40;;;;;;;6.73;4.43;;;;;;;;;;5065560;28;20458;-75
2022/11/07 09:48:34;;;;;;;6.87;3.80;;;;;;;;;;5061344;28;20475;-75
2022/11/07 09:51:27;;;;;;;7.30;3.80;;;;;;;;;;5057420;28;21012;-75
2022/11/07 09:54:17;;;;;;;6.53;4.40;;;;;;;;;;5066564;28;20465;-75
2022/11/07 09:57:06;;;;;;;4.20;3.60;;;;;;;;;;5064767;28;20468;-75
2022/11/07 10:00:04;;;;;;;6.47;3.63;;;;;;;;;;5062140;28;20493;-75
2022/11/07 10:02:54;;;;;;;6.70;4.03;;;;;;;;;;5052881;28;20575;-76
2022/11/07 10:05:48;;;;;;;5.20;3.80;;;;;;;;;;5052622;28;20461;-76
2022/11/07 10:08:41;;;;;;;6.60;3.70;;;;;;;;;;5057002;28;20442;-76
2022/11/07 10:11:32;;;;;;;8.37;4.90;;;;;;;;;;5069931;28;20465;-75
2022/11/07 10:14:24;;;;;;;7.97;4.27;;;;;;;;;;5071625;28;20445;-75
2022/11/07 10:17:20;;;;;;;9.03;4.30;;;;;;;;;;5080342;28;20450;-76
2022/11/07 10:20:14;;;;;;;7.60;4.70;;;;;;;;;;5079943;28;20500;-76
2022/11/07 10:23:10;;;;;;;5.73;4.37;;;;;;;;;;5077631;28;20475;-75
2022/11/07 10:26:03;;;;;;;5.30;4.47;;;;;;;;;;5076859;28;20458;-75
2022/11/07 10:28:56;;;;;;;7.00;4.50;;;;;;;;;;5082620;28;20440;-75
2022/11/07 10:31:49;;;;;;;6.73;4.87;;;;;;;;;;5076119;28;21044;-76
2022/11/07 10:34:41;;;;;;;7.70;5.50;;;;;;;;;;5068005;28;20450;-75
2022/11/07 10:37:29;;;;;;;9.33;4.87;;;;;;;;;;5071210;28;20454;-76
2022/11/07 10:40:20;;;;;;;9.80;4.90;;;;;;;;;;5066937;28;20480;-75
2022/11/07 10:43:16;;;;;;;9.77;5.37;;;;;;;;;;5062271;28;22419;-76
2022/11/07 10:46:11;;;;;;;10.90;5.23;;;;;;;;;;5057973;28;20464;-77
2022/11/07 10:49:00;;;;;;;5.07;4.57;;;;;;;;;;5056408;28;20458;-75
2022/11/07 10:51:49;;;;;;;7.63;5.03;;;;;;;;;;5054305;28;20489;-76
2022/11/07 10:54:39;;;;;;;6.47;5.00;;;;;;;;;;5088357;28;20469;-75
2022/11/07 10:57:30;;;;;;;7.30;5.03;;;;;;;;;;5090320;28;20457;-76
2022/11/07 11:00:23;;;;;;;5.87;4.60;;;;;;;;;;5077904;28;20488;-77
2022/11/07 11:03:16;;;;;;;5.73;4.70;;;;;;;;;;5072599;28;20453;-76
2022/11/07 11:06:12;;;;;;;8.13;4.60;;;;;;;;;;5059476;28;21350;-76
2022/11/07 11:09:12;;;;;;;7.10;5.10;;;;;;;;;;5067653;28;20497;-76
2022/11/07 11:12:04;;;;;;;7.10;4.70;;;;;;;;;;5056760;28;20530;-77
2022/11/07 11:15:10;;;;;;;6.00;4.23;;;;;;;;;;5050977;28;20454;-75
2022/11/07 11:18:01;;;;;;;6.53;4.27;;;;;;;;;;5051973;28;20458;-75
2022/11/07 11:20:55;;;;;;;7.30;4.10;;;;;;;;;;5047902;28;20530;-77
2022/11/07 11:23:45;;;;;;;6.13;4.07;;;;;;;;;;5057344;28;20529;-76
2022/11/07 11:26:36;;;;;;;10.20;5.00;;;;;;;;;;5051910;28;23943;-75
2022/11/07 11:29:29;;;;;;;8.40;5.00;;;;;;;;;;5052108;28;20449;-76
2022/11/07 11:32:28;;;;;;;10.80;4.90;;;;;;;;;;5047941;28;20545;-77
2022/11/07 11:35:24;;;;;;;6.03;4.67;;;;;;;;;;5045940;28;20477;-76
2022/11/07 11:38:16;;;;;;;6.10;4.37;;;;;;;;;;5049434;28;20454;-76
2022/11/07 11:41:10;;;;;;;7.27;3.93;;;;;;;;;;5057365;28;20581;-76
2022/11/07 11:44:00;;;;;;;5.83;4.70;;;;;;;;;;5061733;28;20475;-76
2022/11/07 11:46:52;;;;;;;7.40;4.60;;;;;;;;;;5053778;28;20465;-76
2022/11/07 11:49:44;;;;;;;10.10;4.90;;;;;;;;;;5056493;28;20481;-76
2022/11/07 11:52:34;;;;;;;8.73;5.10;;;;;;;;;;5061873;28;20485;-76
2022/11/07 11:55:24;;;;;;;5.83;4.70;;;;;;;;;;5069131;28;20461;-76
2022/11/07 11:58:19;;;;;;;8.83;5.03;;;;;;;;;;5060442;28;20457;-77
2022/11/07 12:01:10;;;;;;;6.03;4.90;;;;;;;;;;5073302;28;20618;-75
2022/11/07 12:04:09;;;;;;;7.03;4.93;;;;;;;;;;5062437;28;20453;-76
2022/11/07 12:07:01;;;;;;;5.53;4.97;;;;;;;;;;5054902;28;20453;-76
2022/11/07 12:09:52;;;;;;;8.83;5.10;;;;;;;;;;5061493;28;21064;-76
2022/11/07 12:12:49;;;;;;;7.67;5.03;;;;;;;;;;5047645;28;20478;-76
2022/11/07 12:15:42;;;;;;;8.63;5.20;;;;;;;;;;5072044;28;20470;-76
2022/11/07 12:18:33;;;;;;;5.67;5.00;;;;;;;;;;5071959;28;20492;-75
2022/11/07 12:21:25;;;;;;;5.90;4.83;;;;;;;;;;5064217;28;20488;-76
2022/11/07 12:24:23;;;;;;;7.73;5.67;;;;;;;;;;5066985;28;20449;-75
2022/11/07 12:27:17;;;;;;;11.20;5.40;;;;;;;;;;5064628;28;20461;-76
2022/11/07 12:30:19;;;;;;;11.50;5.23;;;;;;;;;;5061544;28;20472;-75
2022/11/07 12:33:14;;;;;;;8.57;5.00;;;;;;;;;;5073347;28;20450;-75
2022/11/07 12:36:06;;;;;;;7.27;5.23;;;;;;;;;;5071406;28;20453;-75
2022/11/07 12:39:04;;;;;;;8.10;4.70;;;;;;;;;;5066410;28;20985;-77
2022/11/07 12:41:56;;;;;;;9.70;4.80;;;;;;;;;;5071962;28;20931;-76
2022/11/07 12:44:59;;;;;;;7.20;5.17;;;;;;;;;;5062518;28;20449;-75
2022/11/07 12:47:59;;;;;;;6.97;5.33;;;;;;;;;;5067955;28;20827;-75
2022/11/07 12:50:49;;;;;;;5.67;4.77;;;;;;;;;;5061842;28;20476;-76
2022/11/07 12:53:42;;;;;;;7.67;5.63;;;;;;;;;;5064896;28;21389;-76
2022/11/07 12:56:32;;;;;;;8.37;5.00;;;;;;;;;;5062559;28;20476;-76
2022/11/07 12:59:23;;;;;;;5.33;4.87;;;;;;;;;;5063507;28;20447;-76
2022/11/07 13:02:21;;;;;;;7.80;4.93;;;;;;;;;;5070857;28;20479;-77
2022/11/07 13:05:17;;;;;;;5.80;4.60;;;;;;;;;;5072320;28;20450;-76
2022/11/07 13:08:08;;;;;;;6.73;4.80;;;;;;;;;;5067365;28;20897;-75
2022/11/07 13:10:59;;;;;;;4.87;4.37;;;;;;;;;;5067653;28;21019;-77
2022/11/07 13:13:55;;;;;;;5.93;4.47;;;;;;;;;;5067321;28;20483;-75
2022/11/07 13:16:50;;;;;;;8.47;5.10;;;;;;;;;;5065807;28;21429;-75
2022/11/07 13:19:41;;;;;;;6.17;4.70;;;;;;;;;;5072304;28;20489;-76
2022/11/07 13:22:34;;;;;;;5.70;4.30;;;;;;;;;;5060248;28;20508;-76
2022/11/07 13:25:24;;;;;;;5.87;4.37;;;;;;;;;;5065164;28;20453;-78
2022/11/07 13:28:36;;;;;;;7.40;5.33;;;;;;;;;;5055931;28;20457;-76
2022/11/07 13:31:32;;;;;;;7.70;4.40;;;;;;;;;;5061337;28;20489;-76
2022/11/07 13:34:25;;;;;;;6.63;4.60;;;;;;;;;;5071877;28;20461;-77
2022/11/07 13:37:23;;;;;;;5.43;4.17;;;;;;;;;;5064621;28;20535;-75
2022/11/07 13:40:21;;;;;;;5.03;3.67;;;;;;;;;;5071458;28;20484;-75
2022/11/07 13:43:15;;;;;;;5.30;4.30;;;;;;;;;;5066873;28;20454;-76
2022/11/07 13:46:06;;;;;;;6.93;4.40;;;;;;;;;;5067267;28;20583;-77
2022/11/07 13:48:57;;;;;;;5.30;4.13;;;;;;;;;;5071244;28;21232;-76
2022/11/07 13:51:47;;;;;;;6.23;4.40;;;;;;;;;;5067783;28;20484;-76
2022/11/07 13:54:40;;;;;;;5.03;4.00;;;;;;;;;;5065371;28;20560;-75
2022/11/07 13:57:30;;;;;;;5.00;3.83;;;;;;;;;;5070519;28;20446;-75
2022/11/07 14:00:19;;;;;;;4.90;3.80;;;;;;;;;;5063724;28;20489;-76
2022/11/07 14:03:22;;;;;;;6.93;4.20;;;;;;;;;;5067748;28;20509;-75
2022/11/07 14:06:13;;;;;;;8.70;4.37;;;;;;;;;;5065995;28;20971;-75
2022/11/07 14:09:01;;;;;;;6.27;3.70;;;;;;;;;;5065297;28;20462;-76
2022/11/07 14:11:52;;;;;;;6.93;4.27;;;;;;;;;;5073845;28;20473;-76
2022/11/07 14:14:41;;;;;;;7.67;4.30;;;;;;;;;;5069770;28;20464;-76
2022/11/07 14:17:32;;;;;;;6.57;3.80;;;;;;;;;;5059580;28;20483;-75
2022/11/07 14:20:21;;;;;;;4.83;3.63;;;;;;;;;;5064178;28;20765;-76
2022/11/07 14:23:12;;;;;;;7.13;4.10;;;;;;;;;;5071572;28;20831;-76
2022/11/07 14:26:02;;;;;;;6.90;4.57;;;;;;;;;;5062290;28;20464;-75
2022/11/07 14:28:53;;;;;;;6.33;3.90;;;;;;;;;;5067244;28;20458;-75
2022/11/07 14:31:41;;;;;;;8.67;4.07;;;;;;;;;;5062385;28;20474;-75
2022/11/07 14:34:30;;;;;;;7.53;3.90;;;;;;;;;;5064185;28;20835;-75
2022/11/07 14:37:19;;;;;;;7.87;4.33;;;;;;;;;;5060897;28;20489;-75
2022/11/07 14:40:09;;;;;;;6.03;3.93;;;;;;;;;;5065249;28;20485;-75
2022/11/07 14:42:57;;;;;;;5.27;4.10;;;;;;;;;;5059590;28;21075;-75
2022/11/07 14:45:48;;;;;;;4.33;3.47;;;;;;;;;;5071887;28;20445;-75
2022/11/07 14:48:56;;;;;;;6.13;4.23;;;;;;;;;;5060918;28;20458;-75
2022/11/07 14:51:45;;;;;;;9.03;4.00;;;;;;;;;;5049991;28;20620;-76
2022/11/07 14:54:36;;;;;;;6.30;4.43;;;;;;;;;;5055118;28;20534;-75
2022/11/07 14:57:25;;;;;;;5.70;3.83;;;;;;;;;;5051924;28;20452;-74
2022/11/07 15:00:15;;;;;;;5.40;4.03;;;;;;;;;;5068234;28;20526;-80
2022/11/07 15:03:05;;;;;;;9.50;4.60;;;;;;;;;;5068275;28;21094;-74
2022/11/07 15:05:54;;;;;;;7.53;4.10;;;;;;;;;;5067342;28;20455;-76
2022/11/07 15:08:42;;;;;;;6.90;4.30;;;;;;;;;;5063298;28;22584;-75
2022/11/07 15:11:32;;;;;;;7.07;4.40;;;;;;;;;;5066081;28;20591;-75
2022/11/07 15:14:22;;;;;;;8.13;4.97;;;;;;;;;;5066278;28;20453;-74
2022/11/07 15:17:25;;;;;;;7.27;4.40;;;;;;;;;;5072205;28;20448;-74
2022/11/07 15:20:24;;;;;;;7.80;4.53;;;;;;;;;;5065466;28;20482;-74
2022/11/07 15:23:27;;;;;;;6.77;4.80;;;;;;;;;;5065788;28;20822;-74
2022/11/07 15:26:20;;;;;;;8.03;4.20;;;;;;;;;;5059939;28;20442;-75
2022/11/07 15:29:15;;;;;;;10.73;4.70;;;;;;;;;;5073327;28;20453;-75
2022/11/07 15:32:11;;;;;;;8.07;4.23;;;;;;;;;;5080005;28;20470;-75
2022/11/07 15:35:00;;;;;;;9.60;3.77;;;;;;;;;;5083231;28;20517;-74
2022/11/07 15:38:16;;;;;;;8.17;3.80;;;;;;;;;;5068161;28;20457;-73
2022/11/07 15:41:05;;;;;;;4.70;4.20;;;;;;;;;;5062950;28;21145;-74
2022/11/07 15:43:54;;;;;;;7.13;3.90;;;;;;;;;;5060227;28;20486;-74
2022/11/07 15:46:42;;;;;;;7.83;4.23;;;;;;;;;;5061847;28;20457;-74
2022/11/07 15:49:32;;;;;;;6.83;3.87;;;;;;;;;;5065039;28;20521;-74
2022/11/07 15:52:21;;;;;;;4.67;4.20;;;;;;;;;;5060067;28;21027;-74
2022/11/07 15:55:15;;;;;;;6.33;3.53;;;;;;;;;;5063129;28;20449;-74
2022/11/07 15:58:05;;;;;;;3.83;3.40;;;;;;;;;;5063619;28;20454;-74
2022/11/07 16:00:54;;;;;;;7.60;3.37;;;;;;;;;;5067418;28;20481;-74
2022/11/07 16:03:42;;;;;;;5.90;3.33;;;;;;;;;;5064904;28;21034;-74
2022/11/07 16:06:32;;;;;;;5.73;3.97;;;;;;;;;;5065910;28;20453;-74
2022/11/07 16:09:21;;;;;;;4.40;3.43;;;;;;;;;;5055455;28;20576;-74
2022/11/07 16:12:13;;;;;;;6.03;3.07;;;;;;;;;;5060291;28;20474;-74
2022/11/07 16:15:01;;;;;;;6.80;3.20;;;;;;;;;;5060762;28;20462;-74
2022/11/07 16:17:50;;;;;;;6.57;3.30;;;;;;;;;;5057334;28;21230;-74
2022/11/07 16:20:38;;;;;;;4.40;3.50;;;;;;;;;;5070048;28;20476;-74
2022/11/07 16:23:27;;;;;;;4.57;3.73;;;;;;;;;;5057831;28;21859;-74
2022/11/07 16:26:16;;;;;;;4.80;3.10;;;;;;;;;;5060507;28;20487;-74
2022/11/07 16:29:07;;;;;;;8.90;3.97;;;;;;;;;;5069008;28;20457;-74
2022/11/07 16:31:55;;;;;;;5.70;3.50;;;;;;;;;;5056882;28;20481;-74
2022/11/07 16:34:44;;;;;;;5.63;3.50;;;;;;;;;;5071586;28;20460;-74
2022/11/07 16:37:32;;;;;;;6.63;4.30;;;;;;;;;;5065607;28;20454;-74
2022/11/07 16:40:21;;;;;;;5.33;3.70;;;;;;;;;;5060551;28;21076;-73
2022/11/07 16:43:09;;;;;;;6.00;3.93;;;;;;;;;;5066669;28;21045;-74
2022/11/07 16:45:59;;;;;;;8.70;3.70;;;;;;;;;;5048816;28;20463;-74
2022/11/07 16:48:49;;;;;;;5.50;3.37;;;;;;;;;;5059541;28;20457;-75
2022/11/07 16:51:38;;;;;;;6.00;4.03;;;;;;;;;;5063363;28;20493;-75
2022/11/07 16:54:26;;;;;;;7.23;4.03;;;;;;;;;;5060450;28;20462;-75
2022/11/07 16:57:16;;;;;;;5.87;3.50;;;;;;;;;;5060652;28;20449;-75
2022/11/07 17:00:05;;;;;;;6.67;3.33;;;;;;;;;;5068618;28;20863;-75
2022/11/07 17:02:55;;;;;;;5.20;3.83;;;;;;;;;;5051408;28;21105;-75
2022/11/07 17:05:43;;;;;;;5.60;3.50;;;;;;;;;;5071786;28;21269;-74
2022/11/07 17:08:35;;;;;;;8.17;4.20;;;;;;;;;;5068564;28;20468;-74
2022/11/07 17:11:23;;;;;;;6.80;3.27;;;;;;;;;;5070116;28;20553;-75
2022/11/07 17:14:12;;;;;;;4.13;3.43;;;;;;;;;;5079986;28;21464;-74
2022/11/07 17:17:00;;;;;;;4.73;3.47;;;;;;;;;;5070483;28;20894;-75
2022/11/07 17:19:50;;;;;;;6.60;3.40;;;;;;;;;;5063511;28;20536;-76
2022/11/07 17:22:42;;;;;;;6.80;4.10;;;;;;;;;;5070244;28;20486;-75